createdAt,value
2023-05-03T00:02:42.591Z,0.0
2023-05-03T00:08:09.222Z,0.0
2023-05-03T00:12:55.639Z,0.0
2023-05-03T00:18:02.025Z,0.0
2023-05-03T00:23:08.349Z,0.0
2023-05-03T00:28:14.769Z,0.0
2023-05-03T00:33:21.128Z,0.0
2023-05-03T00:38:51.573Z,0.0
2023-05-03T00:43:53.972Z,0.0
2023-05-03T00:49:00.430Z,0.0
2023-05-03T00:53:47.932Z,0.0
2023-05-03T00:58:54.338Z,0.0
2023-05-03T01:04:00.847Z,0.0
2023-05-03T01:09:07.123Z,0.0
2023-05-03T01:14:33.539Z,0.0
2023-05-03T01:19:09.886Z,0.0
2023-05-03T01:24:26.466Z,0.0
2023-05-03T01:29:32.834Z,0.0
2023-05-03T01:34:39.231Z,0.0
2023-05-03T01:39:45.581Z,0.0
2023-05-03T01:45:06.019Z,0.0
2023-05-03T01:50:18.461Z,0.0
2023-05-03T01:55:04.798Z,0.0
2023-05-03T02:01:07.914Z,0.0
2023-05-03T02:05:42.224Z,0.0
2023-05-03T02:10:25.667Z,0.0
2023-05-03T02:15:22.061Z,0.0
2023-05-03T02:20:58.516Z,0.0
2023-05-03T02:25:44.873Z,0.0
2023-05-03T02:30:51.279Z,0.0
2023-05-03T02:35:57.649Z,0.0
2023-05-03T02:41:04.116Z,0.0
2023-05-03T02:46:55.630Z,0.0
2023-05-03T02:51:59.670Z,0.0
2023-05-03T02:57:07.051Z,0.0
2023-05-03T03:01:33.345Z,0.0
2023-05-03T03:07:00.751Z,0.0
2023-05-03T03:12:43.213Z,0.0
2023-05-03T03:16:53.481Z,0.0
2023-05-03T03:21:59.932Z,4.0
2023-05-03T03:27:06.449Z,0.0
2023-05-03T03:32:03.919Z,8.0
2023-05-03T03:37:58.291Z,16.0
2023-05-03T03:42:26.590Z,28.0
2023-05-03T03:47:33.041Z,56.0
2023-05-03T03:53:37.726Z,104.0
2023-05-03T03:57:46.146Z,172.0
2023-05-03T04:02:52.786Z,264.0
2023-05-03T04:07:59.045Z,380.0
2023-05-03T04:13:05.420Z,508.0
2023-05-03T04:18:11.935Z,648.0
2023-05-03T04:23:18.178Z,800.0
2023-05-03T04:28:24.565Z,956.0
2023-05-03T04:33:55.025Z,1100.0
2023-05-03T04:38:37.473Z,1240.0
2023-05-03T04:43:33.853Z,1412.0
2023-05-03T04:48:50.249Z,1604.0
2023-05-03T04:53:56.664Z,1804.0
2023-05-03T04:59:02.993Z,1972.0
2023-05-03T05:04:09.415Z,2144.0
2023-05-03T05:09:15.893Z,2308.0
2023-05-03T05:14:22.248Z,2380.0
2023-05-03T05:19:28.614Z,2576.0
2023-05-03T05:24:35.012Z,2688.0
2023-05-03T05:29:41.361Z,2784.0
2023-05-03T05:34:47.743Z,2896.0
2023-05-03T05:39:54.149Z,3012.0
2023-05-03T05:45:00.519Z,3132.0
2023-05-03T05:50:21.167Z,3248.0
2023-05-03T05:55:37.407Z,3360.0
2023-05-03T06:01:15.814Z,3492.0
2023-05-03T06:05:16.088Z,3648.0
2023-05-03T06:10:32.481Z,3796.0
2023-05-03T06:15:58.892Z,3936.0
2023-05-03T06:20:45.209Z,4060.0
2023-05-03T06:25:51.584Z,4260.0
2023-05-03T06:30:59.119Z,4448.0
2023-05-03T06:35:55.554Z,4612.0
2023-05-03T06:41:31.962Z,4728.0
2023-05-03T06:46:38.380Z,4928.0
2023-05-03T06:51:24.699Z,8076.0
2023-05-03T06:56:31.048Z,9204.0
2023-05-03T07:01:37.474Z,9988.0
2023-05-03T07:06:55.198Z,11548.0
2023-05-03T07:11:50.450Z,5300.0
2023-05-03T07:16:58.887Z,12964.0
2023-05-03T07:22:05.310Z,9984.0
2023-05-03T07:27:31.772Z,17632.0
2023-05-03T07:32:18.166Z,16416.0
2023-05-03T07:37:48.618Z,20640.0
2023-05-03T07:42:30.931Z,20096.0
2023-05-03T07:47:37.435Z,22464.0
2023-05-03T07:52:43.841Z,24064.0
2023-05-03T07:57:50.356Z,25344.0
2023-05-03T08:02:56.941Z,25632.0
2023-05-03T08:08:03.100Z,25888.0
2023-05-03T08:13:09.528Z,28032.0
2023-05-03T08:18:15.893Z,28928.0
2023-05-03T08:23:23.331Z,32480.0
2023-05-03T08:28:31.261Z,34912.0
2023-05-03T08:33:27.194Z,34080.0
2023-05-03T08:38:43.703Z,35968.0
2023-05-03T08:44:14.181Z,39744.0
2023-05-03T08:49:20.569Z,41600.0
2023-05-03T08:54:02.906Z,38464.0
2023-05-03T08:59:09.288Z,43328.0
2023-05-03T09:04:15.824Z,44128.0
2023-05-03T09:09:22.022Z,43104.0
2023-05-03T09:14:32.414Z,42912.0
2023-05-03T09:19:24.785Z,47296.0
2023-05-03T09:24:41.157Z,48992.0
2023-05-03T09:29:47.582Z,47968.0
2023-05-03T09:34:54.073Z,50880.0
2023-05-03T09:40:01.820Z,48544.0
2023-05-03T09:45:11.941Z,53536.0
2023-05-03T09:50:14.345Z,53792.0
2023-05-03T09:55:20.708Z,55776.0
2023-05-03T10:00:27.120Z,56864.0
2023-05-03T10:05:57.556Z,56864.0
2023-05-03T10:10:59.908Z,60384.0
2023-05-03T10:15:46.288Z,57760.0
2023-05-03T10:20:52.753Z,63008.0
2023-05-03T10:25:59.154Z,60928.0
2023-05-03T10:31:05.564Z,63488.0
2023-05-03T10:36:11.910Z,65120.0
2023-05-03T10:41:18.323Z,62368.0
2023-05-03T10:46:24.725Z,65344.0
2023-05-03T10:51:55.118Z,59392.0
2023-05-03T10:56:37.506Z,65600.0
2023-05-03T11:01:43.879Z,59296.0
2023-05-03T11:06:50.420Z,68000.0
2023-05-03T11:11:46.723Z,69312.0
2023-05-03T11:17:03.176Z,64800.0
2023-05-03T11:22:09.553Z,61216.0
2023-05-03T11:27:36.012Z,59424.0
2023-05-03T11:32:26.361Z,63616.0
2023-05-03T11:37:28.852Z,63872.0
2023-05-03T11:42:35.316Z,61440.0
2023-05-03T11:47:41.800Z,60864.0
2023-05-03T11:52:48.272Z,64160.0
2023-05-03T11:57:56.076Z,61920.0
2023-05-03T12:03:02.666Z,62624.0
2023-05-03T12:08:09.753Z,60576.0
2023-05-03T12:13:17.109Z,56192.0
2023-05-03T12:18:12.044Z,55328.0
2023-05-03T12:23:28.266Z,54816.0
2023-05-03T12:28:34.500Z,49344.0
2023-05-03T12:33:43.445Z,58560.0
2023-05-03T12:38:49.695Z,55520.0
2023-05-03T12:43:43.857Z,55264.0
2023-05-03T12:49:00.718Z,54880.0
2023-05-03T12:54:10.254Z,57760.0
2023-05-03T13:04:36.914Z,50432.0
2023-05-03T13:15:02.989Z,44608.0
2023-05-03T13:19:45.654Z,41056.0
2023-05-03T13:24:52.025Z,40896.0
2023-05-03T13:29:58.371Z,38720.0
2023-05-03T13:35:05.057Z,36384.0
2023-05-03T13:40:11.133Z,32160.0
2023-05-03T13:45:17.497Z,26336.0
2023-05-03T13:50:27.518Z,27168.0
2023-05-03T13:55:33.861Z,23904.0
2023-05-03T14:00:40.259Z,22752.0
2023-05-03T14:05:46.734Z,22208.0
2023-05-03T14:10:53.566Z,19904.0
2023-05-03T14:15:49.982Z,20096.0
2023-05-03T14:21:26.587Z,21184.0
2023-05-03T14:26:33.010Z,23904.0
2023-05-03T14:31:19.378Z,16704.0
2023-05-03T14:36:25.719Z,16000.0
2023-05-03T14:41:56.725Z,19488.0
2023-05-03T14:46:37.501Z,13136.0
2023-05-03T14:51:46.418Z,10832.0
2023-05-03T14:56:52.796Z,8908.0
2023-05-03T15:01:59.224Z,8952.0
2023-05-03T15:07:05.621Z,8612.0
2023-05-03T15:12:13.587Z,8720.0
2023-05-03T15:18:04.101Z,8816.0
2023-05-03T15:22:26.473Z,8760.0
2023-05-03T15:27:32.861Z,9216.0
2023-05-03T15:32:39.272Z,7160.0
2023-05-03T15:37:45.638Z,10120.0
2023-05-03T15:43:26.049Z,6816.0
2023-05-03T15:47:58.527Z,7184.0
2023-05-03T15:52:54.889Z,7380.0
2023-05-03T15:58:11.261Z,7628.0
2023-05-03T16:03:37.687Z,5916.0
2023-05-03T16:08:24.104Z,5972.0
2023-05-03T16:13:30.443Z,5908.0
2023-05-03T16:18:36.801Z,5760.0
2023-05-03T16:23:43.319Z,5600.0
2023-05-03T16:28:50.212Z,5568.0
2023-05-03T16:33:56.016Z,5520.0
2023-05-03T16:39:22.458Z,5048.0
2023-05-03T16:44:08.824Z,5492.0
2023-05-03T16:49:15.172Z,5500.0
2023-05-03T16:54:59.661Z,5220.0
2023-05-03T16:59:27.934Z,4948.0
2023-05-03T17:04:34.374Z,4280.0
2023-05-03T17:09:40.758Z,5448.0
2023-05-03T17:14:47.293Z,4928.0
2023-05-03T17:19:53.637Z,4624.0
2023-05-03T17:25:04.050Z,4340.0
2023-05-03T17:30:08.077Z,3824.0
2023-05-03T17:35:14.415Z,3432.0
2023-05-03T17:40:40.818Z,3320.0
2023-05-03T17:45:27.170Z,3124.0
2023-05-03T17:50:37.147Z,2852.0
2023-05-03T17:56:07.573Z,2572.0
2023-05-03T18:01:10.646Z,2360.0
2023-05-03T18:06:20.925Z,2164.0
2023-05-03T18:11:02.293Z,1868.0
2023-05-03T18:16:29.790Z,1500.0
2023-05-03T18:21:16.099Z,1280.0
2023-05-03T18:26:12.442Z,1064.0
2023-05-03T18:31:28.912Z,824.0
2023-05-03T18:36:25.351Z,620.0
2023-05-03T18:41:31.763Z,460.0
2023-05-03T18:46:48.274Z,332.0
2023-05-03T18:51:54.597Z,236.0
2023-05-03T18:57:01.957Z,156.0
2023-05-03T19:01:57.354Z,100.0
2023-05-03T19:07:13.847Z,60.0
2023-05-03T19:13:14.396Z,36.0
2023-05-03T19:17:26.652Z,16.0
2023-05-03T19:22:33.141Z,8.0
2023-05-03T19:27:39.438Z,4.0
2023-05-03T19:32:45.835Z,0.0
2023-05-03T19:38:31.297Z,0.0
2023-05-03T19:42:47.552Z,0.0
2023-05-03T19:48:05.055Z,0.0
2023-05-03T19:53:11.601Z,0.0
2023-05-03T19:58:18.015Z,0.0
2023-05-03T20:03:25.587Z,0.0
2023-05-03T20:08:21.853Z,0.0
2023-05-03T20:13:38.281Z,0.0
2023-05-03T20:18:44.606Z,0.0
2023-05-03T20:24:15.031Z,0.0
2023-05-03T20:28:57.405Z,0.0
2023-05-03T20:34:03.798Z,0.0
2023-05-03T20:39:13.953Z,0.0
2023-05-03T20:44:20.559Z,0.0
2023-05-03T20:49:26.811Z,0.0
2023-05-03T20:54:33.250Z,0.0
2023-05-03T21:00:04.081Z,0.0
2023-05-03T21:04:45.971Z,0.0
2023-05-03T21:09:52.376Z,0.0
2023-05-03T21:14:48.803Z,0.0
2023-05-03T21:20:05.425Z,0.0
2023-05-03T21:25:11.572Z,0.0
2023-05-03T21:30:17.948Z,0.0
2023-05-03T21:35:24.357Z,0.0
2023-05-03T21:40:30.716Z,0.0
2023-05-03T21:45:37.107Z,0.0
2023-05-03T21:50:43.832Z,0.0
2023-05-03T21:55:40.100Z,0.0
2023-05-03T22:01:52.748Z,0.0
2023-05-03T22:05:53.053Z,0.0
2023-05-03T22:10:59.429Z,0.0
2023-05-03T22:16:16.032Z,0.0
2023-05-03T22:26:33.498Z,0.0
2023-05-03T22:31:41.100Z,0.0
2023-05-03T22:36:47.655Z,0.0
2023-05-03T22:41:54.059Z,0.0
2023-05-03T22:47:00.416Z,0.0
2023-05-03T22:52:06.787Z,0.0
2023-05-03T22:57:03.167Z,0.0
2023-05-03T23:02:19.615Z,0.0
2023-05-03T23:12:32.960Z,0.0
2023-05-03T23:17:40.413Z,0.0
2023-05-03T23:22:36.740Z,0.0
2023-05-03T23:27:53.158Z,0.0
2023-05-03T23:32:59.564Z,0.0
2023-05-03T23:38:05.924Z,0.0
2023-05-03T23:43:12.273Z,0.0
2023-05-03T23:48:42.828Z,0.0
2023-05-03T23:53:25.156Z,0.0
2023-05-03T23:59:07.254Z,0.0
